Time;durP1;ratioP1;P1;durP2;ratioP2;P2;SDS_P1;SDS_P2;PMS_P1;PMS_P2;Temp;Humidity;BMP_temperature;BMP_pressure;BME280_temperature;BME280_humidity;BME280_pressure;Samples;Min_cycle;Max_cycle;Signal;HPM_P1;HPM_P2
2022/10/29 00:00:09;;;;;;;;;;;21.20;99.90;;;;;;5113188;28;19919;-86
2022/10/29 00:02:35;;;;;;;;;;;21.20;99.90;;;;;;5113822;28;19911;-86
2022/10/29 00:05:00;;;;;;;;;;;21.20;99.90;;;;;;5111060;28;19908;-86
2022/10/29 00:07:25;;;;;;;;;;;21.10;99.90;;;;;;5111633;28;19973;-86
2022/10/29 00:09:54;;;;;;;;;;;21.20;99.90;;;;;;5111875;28;19993;-86
2022/10/29 00:12:20;;;;;;;;;;;21.20;99.90;;;;;;5113636;28;19907;-86
2022/10/29 00:14:46;;;;;;;;;;;21.10;99.90;;;;;;5116866;28;20002;-86
2022/10/29 00:17:11;;;;;;;;;;;21.10;99.90;;;;;;5116434;28;19912;-86
2022/10/29 00:19:40;;;;;;;;;;;21.10;99.90;;;;;;5116555;28;19919;-86
2022/10/29 00:22:08;;;;;;;;;;;21.10;99.90;;;;;;5094805;28;20174;-85
2022/10/29 00:24:34;;;;;;;;;;;21.10;99.90;;;;;;5111945;28;20035;-85
2022/10/29 00:26:59;;;;;;;;;;;21.10;99.90;;;;;;5110795;28;20327;-85
2022/10/29 00:29:25;;;;;;;;;;;21.10;99.90;;;;;;5112250;28;19919;-86
2022/10/29 00:31:53;;;;;;;;;;;21.10;99.90;;;;;;5113637;28;20229;-86
2022/10/29 00:34:19;;;;;;;;;;;21.10;99.90;;;;;;5110660;28;19908;-86
2022/10/29 00:36:47;;;;;;;;;;;21.10;99.90;;;;;;5111536;28;19973;-86
2022/10/29 00:39:16;;;;;;;;;;;21.10;99.90;;;;;;5114007;28;20049;-86
2022/10/29 00:41:44;;;;;;;;;;;21.00;99.90;;;;;;5114717;28;19942;-86
2022/10/29 00:44:13;;;;;;;;;;;21.00;99.90;;;;;;5113302;28;20300;-86
2022/10/29 00:46:40;;;;;;;;;;;21.00;99.90;;;;;;5114058;28;20004;-86
2022/10/29 00:49:09;;;;;;;;;;;21.10;99.90;;;;;;5113876;28;20010;-86
2022/10/29 00:51:35;;;;;;;;;;;21.10;99.90;;;;;;5114111;28;20199;-86
2022/10/29 00:54:06;;;;;;;;;;;21.00;99.90;;;;;;5114096;28;20193;-86
2022/10/29 00:56:33;;;;;;;;;;;21.00;99.90;;;;;;5114842;28;19907;-86
2022/10/29 00:58:59;;;;;;;;;;;21.00;99.90;;;;;;5113950;28;19908;-86
2022/10/29 01:01:25;;;;;;;;;;;21.00;99.90;;;;;;5114790;28;19938;-86
2022/10/29 01:03:51;;;;;;;;;;;21.00;99.90;;;;;;5113324;28;20316;-86
2022/10/29 01:06:20;;;;;;;;;;;21.00;99.90;;;;;;5112510;28;19907;-85
2022/10/29 01:08:46;;;;;;;;;;;21.00;99.90;;;;;;5114528;28;19908;-85
2022/10/29 01:11:14;;;;;;;;;;;21.00;99.90;;;;;;5113569;28;19908;-85
2022/10/29 01:13:53;;;;;;;;;;;21.00;99.90;;;;;;5113347;28;20172;-85
2022/10/29 01:16:22;;;;;;;;;;;21.00;99.90;;;;;;5113983;28;19907;-86
2022/10/29 01:19:07;;;;;;;;;;;21.00;99.90;;;;;;5113148;28;20028;-86
2022/10/29 01:21:37;;;;;;;;;;;21.00;99.90;;;;;;5098244;28;20326;-86
2022/10/29 01:24:17;;;;;;;;;;;21.00;99.90;;;;;;5114295;28;19955;-86
2022/10/29 01:26:46;;;;;;;;;;;21.00;99.90;;;;;;5114972;28;20274;-86
2022/10/29 01:29:27;;;;;;;;;;;21.00;99.90;;;;;;5115561;28;20227;-86
2022/10/29 01:32:19;;;;;;;;;;;21.00;99.90;;;;;;5114024;28;20304;-86
2022/10/29 01:34:44;;;;;;;;;;;21.00;99.90;;;;;;5084242;28;19924;-86
2022/10/29 01:37:31;;;;;;;;;;;21.00;99.90;;;;;;5115088;28;20186;-86
2022/10/29 01:39:57;;;;;;;;;;;21.00;99.90;;;;;;5113556;28;19935;-86
2022/10/29 01:42:27;;;;;;;;;;;21.00;99.90;;;;;;5113385;28;19980;-86
2022/10/29 01:44:57;;;;;;;;;;;21.00;99.90;;;;;;5112323;28;19969;-86
2022/10/29 01:47:25;;;;;;;;;;;21.00;99.90;;;;;;5113319;28;19908;-86
2022/10/29 01:49:53;;;;;;;;;;;21.00;99.90;;;;;;5112036;28;19908;-86
2022/10/29 01:52:21;;;;;;;;;;;21.00;99.90;;;;;;5112077;28;20280;-86
2022/10/29 01:54:47;;;;;;;;;;;20.90;99.90;;;;;;5112019;28;19923;-86
2022/10/29 01:57:32;;;;;;;;;;;20.90;99.90;;;;;;5112174;28;19908;-86
2022/10/29 02:00:09;;;;;;;;;;;20.90;99.90;;;;;;5113852;28;20295;-86
2022/10/29 02:02:34;;;;;;;;;;;20.90;99.90;;;;;;5113745;28;19968;-86
2022/10/29 02:05:00;;;;;;;;;;;20.90;99.90;;;;;;5113744;28;19912;-86
2022/10/29 02:07:28;;;;;;;;;;;20.90;99.90;;;;;;5112966;28;19911;-86
2022/10/29 02:09:59;;;;;;;;;;;20.90;99.90;;;;;;5115006;28;19908;-86
2022/10/29 02:12:27;;;;;;;;;;;20.90;99.90;;;;;;5115224;28;19908;-86
2022/10/29 02:14:57;;;;;;;;;;;20.90;99.90;;;;;;5115339;28;19969;-86
2022/10/29 02:17:23;;;;;;;;;;;20.90;99.90;;;;;;5115183;28;19968;-86
2022/10/29 02:19:49;;;;;;;;;;;20.80;99.90;;;;;;5116663;28;20251;-86
2022/10/29 02:22:14;;;;;;;;;;;20.90;99.90;;;;;;5116609;28;20357;-86
2022/10/29 02:24:40;;;;;;;;;;;20.90;99.90;;;;;;5115763;28;19908;-86
2022/10/29 02:27:07;;;;;;;;;;;20.90;99.90;;;;;;5115872;28;19938;-86
2022/10/29 02:29:32;;;;;;;;;;;20.80;99.90;;;;;;5115411;28;19907;-86
2022/10/29 02:31:58;;;;;;;;;;;20.80;99.90;;;;;;5116539;28;19930;-86
2022/10/29 02:34:23;;;;;;;;;;;20.80;99.90;;;;;;5116268;28;20213;-86
2022/10/29 02:36:52;;;;;;;;;;;20.80;99.90;;;;;;5116335;28;19922;-86
2022/10/29 02:39:17;;;;;;;;;;;20.80;99.90;;;;;;5117333;28;20007;-86
2022/10/29 02:41:43;;;;;;;;;;;20.80;99.90;;;;;;5116975;28;19947;-86
2022/10/29 02:44:09;;;;;;;;;;;20.80;99.90;;;;;;5117143;28;20208;-86
2022/10/29 02:46:38;;;;;;;;;;;20.80;99.90;;;;;;5115391;28;19976;-86
2022/10/29 02:49:04;;;;;;;;;;;20.80;99.90;;;;;;5113106;28;20274;-86
2022/10/29 02:51:33;;;;;;;;;;;20.80;99.90;;;;;;5114388;28;20268;-86
2022/10/29 02:54:02;;;;;;;;;;;20.70;99.90;;;;;;5115861;28;20018;-86
2022/10/29 02:56:27;;;;;;;;;;;20.80;99.90;;;;;;5116840;28;19954;-86
2022/10/29 02:58:53;;;;;;;;;;;20.70;99.90;;;;;;5116205;28;19943;-86
2022/10/29 03:01:18;;;;;;;;;;;20.70;99.90;;;;;;5115934;28;19947;-86
2022/10/29 03:03:44;;;;;;;;;;;20.70;99.90;;;;;;5116304;28;20311;-86
2022/10/29 03:06:17;;;;;;;;;;;20.70;99.90;;;;;;5115520;28;19968;-86
2022/10/29 03:08:43;;;;;;;;;;;20.70;99.90;;;;;;5115729;28;19908;-85
2022/10/29 03:11:12;;;;;;;;;;;20.70;99.90;;;;;;5116025;28;19916;-85
2022/10/29 03:13:38;;;;;;;;;;;20.70;99.90;;;;;;5115154;28;20025;-85
2022/10/29 03:16:07;;;;;;;;;;;20.70;99.90;;;;;;5115050;28;19908;-85
2022/10/29 03:18:32;;;;;;;;;;;20.70;99.90;;;;;;5112982;28;19989;-85
2022/10/29 03:20:58;;;;;;;;;;;20.70;99.90;;;;;;5116732;28;19908;-85
2022/10/29 03:23:26;;;;;;;;;;;20.70;99.90;;;;;;5113763;28;20018;-85
2022/10/29 03:25:53;;;;;;;;;;;20.70;99.90;;;;;;5113645;28;20265;-85
2022/10/29 03:28:19;;;;;;;;;;;20.70;99.90;;;;;;5113656;28;19959;-85
2022/10/29 03:30:45;;;;;;;;;;;20.60;99.90;;;;;;5112425;28;19958;-85
2022/10/29 03:33:11;;;;;;;;;;;20.70;99.90;;;;;;5112772;28;19947;-85
2022/10/29 03:35:39;;;;;;;;;;;20.60;99.90;;;;;;5113417;28;19923;-85
2022/10/29 03:38:05;;;;;;;;;;;20.60;99.90;;;;;;5114654;28;19916;-85
2022/10/29 03:40:30;;;;;;;;;;;20.60;99.90;;;;;;5116264;28;19908;-85
2022/10/29 03:42:59;;;;;;;;;;;20.60;99.90;;;;;;5116133;28;19912;-85
2022/10/29 03:45:25;;;;;;;;;;;20.60;99.90;;;;;;5117258;28;20273;-85
2022/10/29 03:47:55;;;;;;;;;;;20.60;99.90;;;;;;5119595;28;20221;-85
2022/10/29 03:50:21;;;;;;;;;;;20.60;99.90;;;;;;5120324;28;20066;-85
2022/10/29 03:52:47;;;;;;;;;;;20.60;99.90;;;;;;5119348;28;19923;-85
2022/10/29 03:55:12;;;;;;;;;;;20.60;99.90;;;;;;5120230;28;19919;-85
2022/10/29 03:57:38;;;;;;;;;;;20.60;99.90;;;;;;5119626;28;19957;-85
2022/10/29 04:00:06;;;;;;;;;;;20.60;99.90;;;;;;5120247;28;19912;-85
2022/10/29 04:02:32;;;;;;;;;;;20.60;99.90;;;;;;5117890;28;19941;-85
2022/10/29 04:04:58;;;;;;;;;;;20.60;99.90;;;;;;5119978;28;19907;-85
2022/10/29 04:07:23;;;;;;;;;;;20.60;99.90;;;;;;5118152;28;19908;-85
2022/10/29 04:09:49;;;;;;;;;;;20.60;99.90;;;;;;5117740;28;20057;-85
2022/10/29 04:12:14;;;;;;;;;;;20.50;99.90;;;;;;5117712;28;19919;-85
2022/10/29 04:14:41;;;;;;;;;;;20.60;99.90;;;;;;5118603;28;19927;-85
2022/10/29 04:17:07;;;;;;;;;;;20.50;99.90;;;;;;5116809;28;20289;-85
2022/10/29 04:19:32;;;;;;;;;;;20.50;99.90;;;;;;5116697;28;19912;-85
2022/10/29 04:21:58;;;;;;;;;;;20.50;99.90;;;;;;5116502;28;19926;-85
2022/10/29 04:24:27;;;;;;;;;;;20.50;99.90;;;;;;5118350;28;20254;-85
2022/10/29 04:26:52;;;;;;;;;;;20.50;99.90;;;;;;5118187;28;20018;-85
2022/10/29 04:29:18;;;;;;;;;;;20.50;99.90;;;;;;5118766;28;20003;-85
2022/10/29 04:31:43;;;;;;;;;;;20.50;99.90;;;;;;5118738;28;20356;-85
2022/10/29 04:34:09;;;;;;;;;;;20.50;99.90;;;;;;5117351;28;20384;-85
2022/10/29 04:36:35;;;;;;;;;;;20.50;99.90;;;;;;5116554;28;19956;-85
2022/10/29 04:39:00;;;;;;;;;;;20.50;99.90;;;;;;5117422;28;19912;-85
2022/10/29 04:41:26;;;;;;;;;;;20.50;99.90;;;;;;5116266;28;19907;-85
2022/10/29 04:43:52;;;;;;;;;;;20.50;99.90;;;;;;5115858;28;20265;-85
2022/10/29 04:46:17;;;;;;;;;;;20.50;99.90;;;;;;5117044;28;19977;-85
2022/10/29 04:48:43;;;;;;;;;;;20.50;99.90;;;;;;5116377;28;19915;-85
2022/10/29 04:51:18;;;;;;;;;;;20.40;99.90;;;;;;5116284;28;19915;-85
2022/10/29 04:53:43;;;;;;;;;;;20.50;99.90;;;;;;5116797;28;19912;-85
2022/10/29 04:56:12;;;;;;;;;;;20.50;99.90;;;;;;5114965;28;19919;-85
2022/10/29 04:58:38;;;;;;;;;;;20.40;99.90;;;;;;5116641;28;19908;-85
2022/10/29 05:01:06;;;;;;;;;;;20.40;99.90;;;;;;5116198;28;19934;-85
2022/10/29 05:03:33;;;;;;;;;;;20.40;99.90;;;;;;5115199;28;20301;-85
2022/10/29 05:06:03;;;;;;;;;;;20.40;99.90;;;;;;5116024;28;19961;-85
2022/10/29 05:08:28;;;;;;;;;;;20.40;99.90;;;;;;5115421;28;19950;-85
2022/10/29 05:10:54;;;;;;;;;;;20.40;99.90;;;;;;5115689;28;19984;-85
2022/10/29 05:13:20;;;;;;;;;;;20.40;99.90;;;;;;5117042;28;19934;-85
2022/10/29 05:15:49;;;;;;;;;;;20.40;99.90;;;;;;5115547;28;19907;-85
2022/10/29 05:18:14;;;;;;;;;;;20.40;99.90;;;;;;5117518;28;19976;-85
2022/10/29 05:20:40;;;;;;;;;;;20.40;99.90;;;;;;5116684;28;20242;-85
2022/10/29 05:23:09;;;;;;;;;;;20.40;99.90;;;;;;5115182;28;20426;-85
2022/10/29 05:25:36;;;;;;;;;;;20.40;99.90;;;;;;5113803;28;19923;-85
2022/10/29 05:28:13;;;;;;;;;;;20.30;99.90;;;;;;5114672;28;19950;-85
2022/10/29 05:30:40;;;;;;;;;;;20.40;99.90;;;;;;5114235;28;19908;-85
2022/10/29 05:33:09;;;;;;;;;;;20.40;99.90;;;;;;5115464;28;19907;-85
2022/10/29 05:35:35;;;;;;;;;;;20.40;99.90;;;;;;5114754;28;20119;-85
2022/10/29 05:38:03;;;;;;;;;;;20.30;99.90;;;;;;5113205;28;20132;-85
2022/10/29 05:40:29;;;;;;;;;;;20.30;99.90;;;;;;5115561;28;20292;-85
2022/10/29 05:42:55;;;;;;;;;;;20.30;99.90;;;;;;5114886;28;19919;-85
2022/10/29 05:45:20;;;;;;;;;;;20.40;99.90;;;;;;5112171;28;20186;-85
2022/10/29 05:47:46;;;;;;;;;;;20.30;99.90;;;;;;5112045;28;20134;-85
2022/10/29 05:50:12;;;;;;;;;;;20.40;99.90;;;;;;5111680;28;19931;-86
2022/10/29 05:52:40;;;;;;;;;;;20.30;99.90;;;;;;5109949;28;19908;-86
2022/10/29 05:55:09;;;;;;;;;;;20.30;99.90;;;;;;5113280;28;20290;-86
2022/10/29 05:57:37;;;;;;;;;;;20.30;99.90;;;;;;5109730;28;19954;-86
2022/10/29 06:00:07;;;;;;;;;;;20.30;99.90;;;;;;5110779;28;19907;-86
2022/10/29 06:02:32;;;;;;;;;;;20.30;99.90;;;;;;5112653;28;19967;-86
2022/10/29 06:04:58;;;;;;;;;;;20.30;99.90;;;;;;5114614;28;19950;-86
2022/10/29 06:07:23;;;;;;;;;;;20.30;99.90;;;;;;5113386;28;19907;-86
2022/10/29 06:09:49;;;;;;;;;;;20.30;99.90;;;;;;5112672;28;19908;-86
2022/10/29 06:12:18;;;;;;;;;;;20.30;99.90;;;;;;5112012;28;20181;-86
2022/10/29 06:14:44;;;;;;;;;;;20.30;99.90;;;;;;5113922;28;19914;-86
2022/10/29 06:17:09;;;;;;;;;;;20.30;99.90;;;;;;5114315;28;20007;-86
2022/10/29 06:19:35;;;;;;;;;;;20.30;99.90;;;;;;5113362;28;19914;-86
2022/10/29 06:22:04;;;;;;;;;;;20.30;99.90;;;;;;5112617;28;20254;-86
2022/10/29 06:24:30;;;;;;;;;;;20.30;99.90;;;;;;5114227;28;20282;-86
2022/10/29 06:26:55;;;;;;;;;;;20.30;99.90;;;;;;5112260;28;19907;-86
2022/10/29 06:29:21;;;;;;;;;;;20.30;99.90;;;;;;5112562;28;19907;-86
2022/10/29 06:31:49;;;;;;;;;;;20.30;99.90;;;;;;5112712;28;19969;-86
2022/10/29 06:34:15;;;;;;;;;;;20.30;99.90;;;;;;5114253;28;19998;-86
2022/10/29 06:36:41;;;;;;;;;;;20.30;99.90;;;;;;5112322;28;20002;-86
2022/10/29 06:39:06;;;;;;;;;;;20.30;99.90;;;;;;5113644;28;19947;-86
2022/10/29 06:41:32;;;;;;;;;;;20.40;99.90;;;;;;5112931;28;19930;-86
2022/10/29 06:43:58;;;;;;;;;;;20.40;99.90;;;;;;5112744;28;20016;-86
2022/10/29 06:46:26;;;;;;;;;;;20.30;99.90;;;;;;5112424;28;19915;-86
2022/10/29 06:48:55;;;;;;;;;;;20.40;99.90;;;;;;5111714;28;20281;-86
2022/10/29 06:51:21;;;;;;;;;;;20.30;99.90;;;;;;5112495;28;19914;-86
2022/10/29 06:53:47;;;;;;;;;;;20.40;99.90;;;;;;5111091;28;19994;-86
2022/10/29 06:56:13;;;;;;;;;;;20.40;99.90;;;;;;5111461;28;19994;-86
2022/10/29 06:58:41;;;;;;;;;;;20.30;99.90;;;;;;5112301;28;20185;-86
2022/10/29 07:01:10;;;;;;;;;;;20.40;99.90;;;;;;5110329;28;19916;-86
2022/10/29 07:03:38;;;;;;;;;;;20.30;99.90;;;;;;5110310;28;19912;-86
2022/10/29 07:06:07;;;;;;;;;;;20.40;99.90;;;;;;5113865;28;19908;-86
2022/10/29 07:08:32;;;;;;;;;;;20.30;99.90;;;;;;5110965;28;19908;-86
2022/10/29 07:10:58;;;;;;;;;;;20.40;99.90;;;;;;5111180;28;19938;-86
2022/10/29 07:13:23;;;;;;;;;;;20.30;99.90;;;;;;5111790;28;20200;-86
2022/10/29 07:15:49;;;;;;;;;;;20.30;99.90;;;;;;5111899;28;20270;-86
2022/10/29 07:18:15;;;;;;;;;;;20.40;99.90;;;;;;5111883;28;19919;-86
2022/10/29 07:20:42;;;;;;;;;;;20.40;99.90;;;;;;5112941;28;19961;-86
2022/10/29 07:23:08;;;;;;;;;;;20.40;99.90;;;;;;5111464;28;20296;-86
2022/10/29 07:25:34;;;;;;;;;;;20.40;99.90;;;;;;5112048;28;19915;-86
2022/10/29 07:28:03;;;;;;;;;;;20.40;99.90;;;;;;5110048;28;19919;-86
2022/10/29 07:30:30;;;;;;;;;;;20.40;99.90;;;;;;5108294;28;20147;-86
2022/10/29 07:32:55;;;;;;;;;;;20.40;99.90;;;;;;5106564;28;20287;-86
2022/10/29 07:35:24;;;;;;;;;;;20.40;99.90;;;;;;5106436;28;20357;-86
2022/10/29 07:37:57;;;;;;;;;;;20.40;99.90;;;;;;5108249;28;19964;-86
2022/10/29 07:40:22;;;;;;;;;;;20.40;99.90;;;;;;5106563;28;20193;-86
2022/10/29 07:42:53;;;;;;;;;;;20.40;99.90;;;;;;5107908;28;19912;-86
2022/10/29 07:45:18;;;;;;;;;;;20.40;99.90;;;;;;5110158;28;19908;-86
2022/10/29 07:47:44;;;;;;;;;;;20.50;99.90;;;;;;5108228;28;19908;-86
2022/10/29 07:50:13;;;;;;;;;;;20.60;99.90;;;;;;5107546;28;20026;-86
2022/10/29 07:52:42;;;;;;;;;;;20.70;99.90;;;;;;5109784;28;19907;-86
2022/10/29 07:55:08;;;;;;;;;;;20.90;99.90;;;;;;5108478;28;20167;-86
2022/10/29 07:57:33;;;;;;;;;;;21.60;99.90;;;;;;5108915;28;20293;-86
2022/10/29 07:59:59;;;;;;;;;;;21.80;99.90;;;;;;5108556;28;19938;-87
2022/10/29 08:02:25;;;;;;;;;;;21.90;99.90;;;;;;5109320;28;20090;-87
2022/10/29 08:04:50;;;;;;;;;;;21.80;99.90;;;;;;5109194;28;20189;-86
2022/10/29 08:07:16;;;;;;;;;;;21.60;99.90;;;;;;5110609;28;19959;-86
2022/10/29 08:09:42;;;;;;;;;;;21.60;99.90;;;;;;5110239;28;20281;-86
2022/10/29 08:12:11;;;;;;;;;;;21.50;99.90;;;;;;5108941;28;19975;-87
2022/10/29 08:14:37;;;;;;;;;;;21.60;99.90;;;;;;5106942;28;19908;-86
2022/10/29 08:17:02;;;;;;;;;;;21.60;99.90;;;;;;5109298;28;19937;-86
2022/10/29 08:19:28;;;;;;;;;;;21.50;99.90;;;;;;5109827;28;19911;-87
2022/10/29 08:21:55;;;;;;;;;;;21.40;99.90;;;;;;5109347;28;19977;-86
2022/10/29 08:24:20;;;;;;;;;;;21.40;99.90;;;;;;5110349;28;20177;-86
2022/10/29 08:26:48;;;;;;;;;;;21.50;99.90;;;;;;5110584;28;19908;-86
2022/10/29 08:29:14;;;;;;;;;;;21.70;99.90;;;;;;5109617;28;19961;-86
2022/10/29 08:31:40;;;;;;;;;;;21.90;99.90;;;;;;5114427;28;19915;-86
2022/10/29 08:34:05;;;;;;;;;;;22.20;99.80;;;;;;5111901;28;20146;-86
2022/10/29 08:36:31;;;;;;;;;;;22.30;99.40;;;;;;5112840;28;19915;-86
2022/10/29 08:38:59;;;;;;;;;;;22.80;98.70;;;;;;5110042;28;20232;-87
2022/10/29 08:41:31;;;;;;;;;;;23.10;97.40;;;;;;5108064;28;19907;-86
2022/10/29 08:43:59;;;;;;;;;;;23.30;97.00;;;;;;5109990;28;19911;-87
2022/10/29 08:46:34;;;;;;;;;;;23.80;95.80;;;;;;5109698;28;19939;-86
2022/10/29 08:49:05;;;;;;;;;;;24.30;94.40;;;;;;5108462;28;19915;-86
2022/10/29 08:51:36;;;;;;;;;;;24.40;93.60;;;;;;5110651;28;19915;-88
2022/10/29 08:54:02;;;;;;;;;;;24.40;93.40;;;;;;5109556;28;20236;-87
2022/10/29 08:56:29;;;;;;;;;;;24.10;93.70;;;;;;5110128;28;20002;-87
2022/10/29 08:58:57;;;;;;;;;;;24.00;94.30;;;;;;5110398;28;19973;-87
2022/10/29 09:01:23;;;;;;;;;;;24.40;93.50;;;;;;5113382;28;20248;-87
2022/10/29 09:03:50;;;;;;;;;;;24.50;92.90;;;;;;5113664;28;19911;-87
2022/10/29 09:06:38;;;;;;;;;;;24.60;92.30;;;;;;5113088;28;19912;-87
2022/10/29 09:09:26;;;;;;;;;;;24.70;92.10;;;;;;5103205;28;20190;-87
2022/10/29 09:11:51;;;;;;;;;;;24.70;92.00;;;;;;5111988;28;19920;-87
2022/10/29 09:14:36;;;;;;;;;;;24.80;91.60;;;;;;5110060;28;19919;-87
2022/10/29 09:17:20;;;;;;;;;;;25.30;90.70;;;;;;5109238;28;19920;-88
2022/10/29 09:20:07;;;;;;;;;;;25.10;90.40;;;;;;5110651;28;19923;-87
2022/10/29 09:22:51;;;;;;;;;;;24.80;90.80;;;;;;5109381;28;19911;-87
2022/10/29 09:25:22;;;;;;;;;;;24.70;91.30;;;;;;5111546;28;19961;-87
2022/10/29 09:27:48;;;;;;;;;;;24.30;92.20;;;;;;5111263;28;19916;-86
2022/10/29 09:30:18;;;;;;;;;;;24.10;92.90;;;;;;5107183;28;19914;-86
2022/10/29 09:32:55;;;;;;;;;;;24.10;92.90;;;;;;5108056;28;19908;-87
2022/10/29 09:35:21;;;;;;;;;;;24.10;92.80;;;;;;5109231;28;20277;-86
2022/10/29 09:38:00;;;;;;;;;;;24.00;93.10;;;;;;5108377;28;19939;-87
2022/10/29 09:40:28;;;;;;;;;;;23.80;93.70;;;;;;5107898;28;20049;-86
2022/10/29 09:42:57;;;;;;;;;;;23.70;94.00;;;;;;5108598;28;19919;-86
2022/10/29 09:45:24;;;;;;;;;;;23.60;94.30;;;;;;5111640;28;19907;-87
2022/10/29 09:47:58;;;;;;;;;;;23.50;94.60;;;;;;5109916;28;19907;-87
2022/10/29 09:50:27;;;;;;;;;;;23.50;94.90;;;;;;5110735;28;19974;-87
2022/10/29 09:52:55;;;;;;;;;;;23.40;95.10;;;;;;5110670;28;19907;-86
2022/10/29 09:55:25;;;;;;;;;;;23.40;95.30;;;;;;5108986;28;19908;-86
2022/10/29 09:57:54;;;;;;;;;;;23.30;95.40;;;;;;5107398;28;19947;-86
2022/10/29 10:00:23;;;;;;;;;;;23.30;95.50;;;;;;5106721;28;19918;-86
2022/10/29 10:03:07;;;;;;;;;;;23.40;95.50;;;;;;5107822;28;19912;-86
2022/10/29 10:05:37;;;;;;;;;;;23.30;95.50;;;;;;5107096;28;20252;-86
2022/10/29 10:08:15;;;;;;;;;;;23.30;95.60;;;;;;5106624;28;19919;-87
2022/10/29 10:10:58;;;;;;;;;;;23.20;95.80;;;;;;5109499;28;19939;-86
2022/10/29 10:13:25;;;;;;;;;;;23.10;96.10;;;;;;5106789;28;19916;-86
2022/10/29 10:15:58;;;;;;;;;;;23.00;96.40;;;;;;5107981;28;19907;-87
2022/10/29 10:18:37;;;;;;;;;;;22.90;96.70;;;;;;5105313;28;20224;-87
2022/10/29 10:21:02;;;;;;;;;;;22.90;96.90;;;;;;5107054;28;20075;-86
2022/10/29 10:23:39;;;;;;;;;;;22.90;97.10;;;;;;5107068;28;20200;-86
2022/10/29 10:26:23;;;;;;;;;;;22.90;97.10;;;;;;5107838;28;20364;-86
2022/10/29 10:29:03;;;;;;;;;;;22.90;97.10;;;;;;5108369;28;19971;-86
2022/10/29 10:31:28;;;;;;;;;;;22.90;97.10;;;;;;5107916;28;19951;-86
2022/10/29 10:33:54;;;;;;;;;;;22.90;97.10;;;;;;5108440;28;19951;-87
2022/10/29 10:36:22;;;;;;;;;;;22.90;97.20;;;;;;5108160;28;20030;-86
2022/10/29 10:38:56;;;;;;;;;;;22.90;97.20;;;;;;5107674;28;19920;-86
2022/10/29 10:41:36;;;;;;;;;;;23.00;97.20;;;;;;5108578;28;19922;-86
2022/10/29 10:44:04;;;;;;;;;;;23.00;97.10;;;;;;5104955;28;20182;-87
2022/10/29 10:46:34;;;;;;;;;;;23.00;97.20;;;;;;5106454;28;20045;-86
2022/10/29 10:49:12;;;;;;;;;;;23.00;97.20;;;;;;5105457;28;20309;-86
2022/10/29 10:51:41;;;;;;;;;;;22.90;97.30;;;;;;5107530;28;20177;-87
2022/10/29 10:54:26;;;;;;;;;;;23.00;97.30;;;;;;5106035;28;19949;-86
2022/10/29 10:57:04;;;;;;;;;;;23.00;97.30;;;;;;5107257;28;19919;-86
2022/10/29 10:59:41;;;;;;;;;;;23.00;97.30;;;;;;5105079;28;19919;-86
2022/10/29 11:02:28;;;;;;;;;;;23.00;97.30;;;;;;5105963;28;19912;-87
2022/10/29 11:05:14;;;;;;;;;;;23.00;97.30;;;;;;5105316;28;19916;-87
2022/10/29 11:07:43;;;;;;;;;;;23.00;97.30;;;;;;5092202;28;19950;-87
2022/10/29 11:10:10;;;;;;;;;;;23.00;97.30;;;;;;5107130;28;20014;-87
2022/10/29 11:12:41;;;;;;;;;;;23.00;97.40;;;;;;5106493;28;19952;-86
2022/10/29 11:15:23;;;;;;;;;;;23.00;97.40;;;;;;5105444;28;19903;-87
2022/10/29 11:17:58;;;;;;;;;;;23.10;97.40;;;;;;5105337;28;20177;-86
2022/10/29 11:20:30;;;;;;;;;;;23.10;97.30;;;;;;5102889;28;19976;-86
2022/10/29 11:23:17;;;;;;;;;;;23.10;97.40;;;;;;5105261;28;20081;-86
2022/10/29 11:25:47;;;;;;;;;;;23.10;97.40;;;;;;5105179;28;19907;-86
2022/10/29 11:28:25;;;;;;;;;;;23.10;97.40;;;;;;5107405;28;19907;-87
2022/10/29 11:30:57;;;;;;;;;;;23.10;97.40;;;;;;5106960;28;20186;-87
2022/10/29 11:33:34;;;;;;;;;;;23.10;97.50;;;;;;5107298;28;19907;-87
2022/10/29 11:36:20;;;;;;;;;;;23.00;97.60;;;;;;5106701;28;20300;-87
2022/10/29 11:38:52;;;;;;;;;;;23.00;97.60;;;;;;5105317;28;19912;-87
2022/10/29 11:41:17;;;;;;;;;;;23.00;97.80;;;;;;5103217;28;19965;-87
2022/10/29 11:43:45;;;;;;;;;;;22.90;97.80;;;;;;5106168;28;19911;-86
2022/10/29 11:46:21;;;;;;;;;;;22.90;97.90;;;;;;5108695;28;19934;-87
2022/10/29 11:49:04;;;;;;;;;;;22.90;97.90;;;;;;5108181;28;19908;-87
2022/10/29 11:51:45;;;;;;;;;;;22.90;98.00;;;;;;5110278;28;20181;-86
2022/10/29 11:54:17;;;;;;;;;;;22.90;98.10;;;;;;5109567;28;20015;-87
2022/10/29 11:56:54;;;;;;;;;;;22.90;98.50;;;;;;5107595;28;19988;-87
2022/10/29 11:59:25;;;;;;;;;;;22.90;98.20;;;;;;5107595;28;19919;-87
2022/10/29 12:02:10;;;;;;;;;;;22.90;98.20;;;;;;5106319;28;20387;-87
2022/10/29 12:04:45;;;;;;;;;;;22.90;98.20;;;;;;5107020;28;20347;-86
2022/10/29 12:07:22;;;;;;;;;;;22.90;98.20;;;;;;5111126;28;19919;-86
2022/10/29 12:10:10;;;;;;;;;;;22.90;98.30;;;;;;5109524;28;19971;-86
2022/10/29 12:12:36;;;;;;;;;;;22.90;98.30;;;;;;5091251;28;20580;-86
2022/10/29 12:15:23;;;;;;;;;;;22.90;98.40;;;;;;5090673;28;19908;-86
2022/10/29 12:17:49;;;;;;;;;;;22.90;98.40;;;;;;5086796;28;19912;-87
2022/10/29 12:20:18;;;;;;;;;;;22.90;98.40;;;;;;5088737;28;19908;-87
2022/10/29 12:22:47;;;;;;;;;;;22.90;98.40;;;;;;5089126;28;19912;-87
2022/10/29 12:25:36;;;;;;;;;;;22.90;98.50;;;;;;5104755;28;20128;-87
2022/10/29 12:28:02;;;;;;;;;;;22.90;98.80;;;;;;5088992;28;19973;-86
2022/10/29 12:30:31;;;;;;;;;;;22.90;98.50;;;;;;5087484;28;19916;-86
2022/10/29 12:33:18;;;;;;;;;;;22.90;98.50;;;;;;5087135;28;19982;-86
2022/10/29 12:36:04;;;;;;;;;;;22.90;98.50;;;;;;5088034;28;19916;-86
2022/10/29 12:38:46;;;;;;;;;;;22.90;98.60;;;;;;5090618;28;20338;-86
2022/10/29 12:41:22;;;;;;;;;;;22.90;98.60;;;;;;5091897;28;19935;-87
2022/10/29 12:43:48;;;;;;;;;;;22.90;98.70;;;;;;5091764;28;19981;-87
2022/10/29 12:46:20;;;;;;;;;;;22.90;98.70;;;;;;5089790;28;20001;-86
2022/10/29 12:48:55;;;;;;;;;;;22.90;98.70;;;;;;5089335;28;19977;-86
2022/10/29 12:51:24;;;;;;;;;;;22.90;98.80;;;;;;5088185;28;19995;-86
2022/10/29 12:53:59;;;;;;;;;;;22.90;98.80;;;;;;5090328;28;19939;-86
2022/10/29 12:56:26;;;;;;;;;;;22.90;98.80;;;;;;5089443;28;19908;-86
2022/10/29 12:58:55;;;;;;;;;;;22.90;98.90;;;;;;5088217;28;19908;-86
2022/10/29 13:01:24;;;;;;;;;;;22.90;98.90;;;;;;5089653;28;20555;-86
2022/10/29 13:04:01;;;;;;;;;;;22.90;98.90;;;;;;5091533;28;20511;-86
2022/10/29 13:06:41;;;;;;;;;;;22.90;98.90;;;;;;5091963;28;19912;-86
2022/10/29 13:09:19;;;;;;;;;;;22.90;98.90;;;;;;5091615;28;19998;-86
2022/10/29 13:11:49;;;;;;;;;;;22.90;98.90;;;;;;5089756;28;20215;-86
2022/10/29 13:14:23;;;;;;;;;;;22.90;99.10;;;;;;5089969;28;19916;-86
2022/10/29 13:16:54;;;;;;;;;;;22.90;98.90;;;;;;5088220;28;19963;-87
2022/10/29 13:19:38;;;;;;;;;;;22.90;98.90;;;;;;5085812;28;19908;-87
2022/10/29 13:22:27;;;;;;;;;;;22.90;98.90;;;;;;5087151;28;20096;-87
2022/10/29 13:25:11;;;;;;;;;;;22.90;99.00;;;;;;5058209;28;19936;-87
2022/10/29 13:27:37;;;;;;;;;;;22.90;99.00;;;;;;5087810;28;19912;-87
2022/10/29 13:30:16;;;;;;;;;;;22.90;99.10;;;;;;5087264;28;19919;-86
2022/10/29 13:32:41;;;;;;;;;;;22.90;99.10;;;;;;5085714;28;20238;-87
2022/10/29 13:35:27;;;;;;;;;;;22.90;99.20;;;;;;5085079;28;19976;-86
2022/10/29 13:37:54;;;;;;;;;;;22.90;99.20;;;;;;5055394;28;19923;-86
2022/10/29 13:40:31;;;;;;;;;;;22.90;99.20;;;;;;5086775;28;19912;-86
2022/10/29 13:43:00;;;;;;;;;;;22.90;99.30;;;;;;5087505;28;19935;-86
2022/10/29 13:45:26;;;;;;;;;;;22.90;99.30;;;;;;5088630;28;20234;-87
2022/10/29 13:47:55;;;;;;;;;;;22.90;99.30;;;;;;5088093;28;19918;-87
2022/10/29 13:50:21;;;;;;;;;;;22.90;99.40;;;;;;5089381;28;19908;-86
2022/10/29 13:52:50;;;;;;;;;;;22.90;99.40;;;;;;5105648;28;19917;-87
2022/10/29 13:55:16;;;;;;;;;;;22.90;99.40;;;;;;5104802;28;19908;-87
2022/10/29 13:57:46;;;;;;;;;;;22.80;99.40;;;;;;5089561;28;20431;-87
2022/10/29 14:00:11;;;;;;;;;;;22.80;99.50;;;;;;5088615;28;20022;-86
2022/10/29 14:02:38;;;;;;;;;;;22.80;99.50;;;;;;5088971;28;19912;-86
2022/10/29 14:05:22;;;;;;;;;;;22.90;99.60;;;;;;5087785;28;19908;-86
2022/10/29 14:07:59;;;;;;;;;;;22.80;99.70;;;;;;5086737;28;19947;-86
2022/10/29 14:10:27;;;;;;;;;;;22.80;99.70;;;;;;5086708;28;20012;-86
2022/10/29 14:12:59;;;;;;;;;;;22.80;99.70;;;;;;5088219;28;19908;-86
2022/10/29 14:15:25;;;;;;;;;;;22.80;99.80;;;;;;5088527;28;19908;-86
2022/10/29 14:17:53;;;;;;;;;;;22.80;99.90;;;;;;5085363;28;19919;-86
2022/10/29 14:20:22;;;;;;;;;;;22.80;99.90;;;;;;5088011;28;19908;-86
2022/10/29 14:22:47;;;;;;;;;;;22.80;99.90;;;;;;5087050;28;20185;-86
2022/10/29 14:25:24;;;;;;;;;;;22.80;99.90;;;;;;5086935;28;20274;-86
2022/10/29 14:28:12;;;;;;;;;;;22.80;99.90;;;;;;5086410;28;19936;-86
2022/10/29 14:30:40;;;;;;;;;;;22.80;99.90;;;;;;5087116;28;19916;-86